sensor_id;sensor_type;location;lat;lon;timestamp;temperature;humidity
18777;DHT22;9517;51.174;4.160;2023-06-04T00:02:11;14.80;99.90
18777;DHT22;9517;51.174;4.160;2023-06-04T00:04:38;14.90;99.90
18777;DHT22;9517;51.174;4.160;2023-06-04T00:07:06;14.80;99.90
18777;DHT22;9517;51.174;4.160;2023-06-04T00:09:33;14.80;99.90
18777;DHT22;9517;51.174;4.160;2023-06-04T00:12:02;14.80;99.90
18777;DHT22;9517;51.174;4.160;2023-06-04T00:14:29;14.80;99.90
18777;DHT22;9517;51.174;4.160;2023-06-04T00:16:57;14.80;99.90
18777;DHT22;9517;51.174;4.160;2023-06-04T00:19:24;14.80;99.90
18777;DHT22;9517;51.174;4.160;2023-06-04T00:21:51;14.80;99.90
18777;DHT22;9517;51.174;4.160;2023-06-04T00:24:18;14.70;99.90
18777;DHT22;9517;51.174;4.160;2023-06-04T00:26:46;14.70;99.90
18777;DHT22;9517;51.174;4.160;2023-06-04T00:29:15;14.70;99.90
18777;DHT22;9517;51.174;4.160;2023-06-04T00:31:42;14.70;99.90
18777;DHT22;9517;51.174;4.160;2023-06-04T00:34:10;14.80;99.90
18777;DHT22;9517;51.174;4.160;2023-06-04T00:36:38;14.70;99.90
18777;DHT22;9517;51.174;4.160;2023-06-04T00:39:06;14.70;99.90
18777;DHT22;9517;51.174;4.160;2023-06-04T00:41:33;14.80;99.90
18777;DHT22;9517;51.174;4.160;2023-06-04T00:44:00;14.70;99.90
18777;DHT22;9517;51.174;4.160;2023-06-04T00:46:29;14.60;99.90
18777;DHT22;9517;51.174;4.160;2023-06-04T00:48:56;14.60;99.90
18777;DHT22;9517;51.174;4.160;2023-06-04T00:51:28;14.50;99.90
18777;DHT22;9517;51.174;4.160;2023-06-04T00:53:57;14.40;99.90
18777;DHT22;9517;51.174;4.160;2023-06-04T00:56:25;14.40;99.90
18777;DHT22;9517;51.174;4.160;2023-06-04T00:58:52;14.50;99.90
18777;DHT22;9517;51.174;4.160;2023-06-04T01:01:26;14.30;99.90
18777;DHT22;9517;51.174;4.160;2023-06-04T01:04:00;14.20;99.90
18777;DHT22;9517;51.174;4.160;2023-06-04T01:06:33;14.30;99.90
18777;DHT22;9517;51.174;4.160;2023-06-04T01:09:02;14.40;99.90
18777;DHT22;9517;51.174;4.160;2023-06-04T01:11:34;14.30;99.90
18777;DHT22;9517;51.174;4.160;2023-06-04T01:14:01;14.20;99.90
18777;DHT22;9517;51.174;4.160;2023-06-04T01:16:32;14.10;99.90
18777;DHT22;9517;51.174;4.160;2023-06-04T01:19:05;14.10;99.90
18777;DHT22;9517;51.174;4.160;2023-06-04T01:21:48;14.20;99.90
18777;DHT22;9517;51.174;4.160;2023-06-04T01:24:21;14.10;99.90
18777;DHT22;9517;51.174;4.160;2023-06-04T01:26:52;14.10;99.90
18777;DHT22;9517;51.174;4.160;2023-06-04T01:29:22;13.80;99.90
18777;DHT22;9517;51.174;4.160;2023-06-04T01:31:50;14.00;99.90
18777;DHT22;9517;51.174;4.160;2023-06-04T01:34:20;13.90;99.90
18777;DHT22;9517;51.174;4.160;2023-06-04T01:36:47;14.00;99.90
18777;DHT22;9517;51.174;4.160;2023-06-04T01:39:14;14.10;99.90
18777;DHT22;9517;51.174;4.160;2023-06-04T01:41:42;14.00;99.90
18777;DHT22;9517;51.174;4.160;2023-06-04T01:44:10;14.00;99.90
18777;DHT22;9517;51.174;4.160;2023-06-04T01:46:37;14.00;99.90
18777;DHT22;9517;51.174;4.160;2023-06-04T01:49:04;13.90;99.90
18777;DHT22;9517;51.174;4.160;2023-06-04T01:51:33;13.90;99.90
18777;DHT22;9517;51.174;4.160;2023-06-04T01:54:00;13.90;99.90
18777;DHT22;9517;51.174;4.160;2023-06-04T01:56:27;13.80;99.90
18777;DHT22;9517;51.174;4.160;2023-06-04T01:58:55;13.80;99.90
18777;DHT22;9517;51.174;4.160;2023-06-04T02:01:22;13.80;99.90
18777;DHT22;9517;51.174;4.160;2023-06-04T02:03:49;13.80;99.90
18777;DHT22;9517;51.174;4.160;2023-06-04T02:06:16;13.80;99.90
18777;DHT22;9517;51.174;4.160;2023-06-04T02:08:45;13.70;99.90
18777;DHT22;9517;51.174;4.160;2023-06-04T02:11:12;13.80;99.90
18777;DHT22;9517;51.174;4.160;2023-06-04T02:13:39;13.70;99.90
18777;DHT22;9517;51.174;4.160;2023-06-04T02:16:07;13.60;99.90
18777;DHT22;9517;51.174;4.160;2023-06-04T02:18:34;13.60;99.90
18777;DHT22;9517;51.174;4.160;2023-06-04T02:21:01;13.70;99.90
18777;DHT22;9517;51.174;4.160;2023-06-04T02:23:28;13.70;99.90
18777;DHT22;9517;51.174;4.160;2023-06-04T02:25:57;13.60;99.90
18777;DHT22;9517;51.174;4.160;2023-06-04T02:28:24;13.60;99.90
18777;DHT22;9517;51.174;4.160;2023-06-04T02:30:51;13.60;99.90
18777;DHT22;9517;51.174;4.160;2023-06-04T02:33:19;13.50;99.90
18777;DHT22;9517;51.174;4.160;2023-06-04T02:35:46;13.50;99.90
18777;DHT22;9517;51.174;4.160;2023-06-04T02:38:13;13.50;99.90
18777;DHT22;9517;51.174;4.160;2023-06-04T02:40:41;13.50;99.90
18777;DHT22;9517;51.174;4.160;2023-06-04T02:43:10;13.40;99.90
18777;DHT22;9517;51.174;4.160;2023-06-04T02:45:38;13.40;99.90
18777;DHT22;9517;51.174;4.160;2023-06-04T02:48:05;13.20;99.90
18777;DHT22;9517;51.174;4.160;2023-06-04T02:50:32;13.10;99.90
18777;DHT22;9517;51.174;4.160;2023-06-04T02:52:59;13.20;99.90
18777;DHT22;9517;51.174;4.160;2023-06-04T02:55:27;13.20;99.90
18777;DHT22;9517;51.174;4.160;2023-06-04T02:57:54;13.10;99.90
18777;DHT22;9517;51.174;4.160;2023-06-04T03:00:23;13.10;99.90
18777;DHT22;9517;51.174;4.160;2023-06-04T03:02:51;12.90;99.90
18777;DHT22;9517;51.174;4.160;2023-06-04T03:05:18;12.80;99.90
18777;DHT22;9517;51.174;4.160;2023-06-04T03:07:46;12.80;99.90
18777;DHT22;9517;51.174;4.160;2023-06-04T03:10:14;12.80;99.90
18777;DHT22;9517;51.174;4.160;2023-06-04T03:12:42;12.80;99.90
18777;DHT22;9517;51.174;4.160;2023-06-04T03:15:09;12.80;99.90
18777;DHT22;9517;51.174;4.160;2023-06-04T03:17:38;12.80;99.90
18777;DHT22;9517;51.174;4.160;2023-06-04T03:20:06;12.70;99.90
18777;DHT22;9517;51.174;4.160;2023-06-04T03:22:34;12.70;99.90
18777;DHT22;9517;51.174;4.160;2023-06-04T03:25:01;12.80;99.90
18777;DHT22;9517;51.174;4.160;2023-06-04T03:27:30;12.80;99.90
18777;DHT22;9517;51.174;4.160;2023-06-04T03:29:57;12.80;99.90
18777;DHT22;9517;51.174;4.160;2023-06-04T03:32:25;12.80;99.90
18777;DHT22;9517;51.174;4.160;2023-06-04T03:34:56;12.80;99.90
18777;DHT22;9517;51.174;4.160;2023-06-04T03:37:24;12.70;99.90
18777;DHT22;9517;51.174;4.160;2023-06-04T03:39:51;12.50;99.90
18777;DHT22;9517;51.174;4.160;2023-06-04T03:42:18;12.60;99.90
18777;DHT22;9517;51.174;4.160;2023-06-04T03:44:45;12.70;99.90
18777;DHT22;9517;51.174;4.160;2023-06-04T03:47:13;12.60;99.90
18777;DHT22;9517;51.174;4.160;2023-06-04T03:49:40;12.60;99.90
18777;DHT22;9517;51.174;4.160;2023-06-04T03:52:09;12.60;99.90
18777;DHT22;9517;51.174;4.160;2023-06-04T03:54:36;12.70;99.90
18777;DHT22;9517;51.174;4.160;2023-06-04T03:57:03;12.80;99.90
18777;DHT22;9517;51.174;4.160;2023-06-04T03:59:30;12.80;99.90
18777;DHT22;9517;51.174;4.160;2023-06-04T04:01:58;12.70;99.90
18777;DHT22;9517;51.174;4.160;2023-06-04T04:04:25;12.80;99.90
18777;DHT22;9517;51.174;4.160;2023-06-04T04:06:52;12.80;99.90
18777;DHT22;9517;51.174;4.160;2023-06-04T04:09:21;12.70;99.90
18777;DHT22;9517;51.174;4.160;2023-06-04T04:11:49;12.70;99.90
18777;DHT22;9517;51.174;4.160;2023-06-04T04:14:17;12.70;99.90
18777;DHT22;9517;51.174;4.160;2023-06-04T04:16:44;12.70;99.90
18777;DHT22;9517;51.174;4.160;2023-06-04T04:19:11;12.90;99.90
18777;DHT22;9517;51.174;4.160;2023-06-04T04:21:38;12.90;99.90
18777;DHT22;9517;51.174;4.160;2023-06-04T04:24:05;12.80;99.90
18777;DHT22;9517;51.174;4.160;2023-06-04T04:26:34;12.90;99.90
18777;DHT22;9517;51.174;4.160;2023-06-04T04:29:01;13.00;99.90
18777;DHT22;9517;51.174;4.160;2023-06-04T04:31:29;13.10;99.90
18777;DHT22;9517;51.174;4.160;2023-06-04T04:33:57;13.20;99.90
18777;DHT22;9517;51.174;4.160;2023-06-04T04:36:26;13.20;99.90
18777;DHT22;9517;51.174;4.160;2023-06-04T04:38:53;13.10;99.90
18777;DHT22;9517;51.174;4.160;2023-06-04T04:41:21;13.30;99.90
18777;DHT22;9517;51.174;4.160;2023-06-04T04:43:53;13.30;99.90
18777;DHT22;9517;51.174;4.160;2023-06-04T04:46:21;13.40;99.90
18777;DHT22;9517;51.174;4.160;2023-06-04T04:48:48;13.50;99.90
18777;DHT22;9517;51.174;4.160;2023-06-04T04:51:15;13.50;99.90
18777;DHT22;9517;51.174;4.160;2023-06-04T04:53:42;13.60;99.90
18777;DHT22;9517;51.174;4.160;2023-06-04T04:56:09;13.70;99.90
18777;DHT22;9517;51.174;4.160;2023-06-04T04:58:37;13.70;99.90
18777;DHT22;9517;51.174;4.160;2023-06-04T05:01:05;13.80;99.90
18777;DHT22;9517;51.174;4.160;2023-06-04T05:03:32;13.90;99.90
18777;DHT22;9517;51.174;4.160;2023-06-04T05:06:00;14.00;99.90
18777;DHT22;9517;51.174;4.160;2023-06-04T05:08:27;14.10;99.90
18777;DHT22;9517;51.174;4.160;2023-06-04T05:10:57;14.20;99.90
18777;DHT22;9517;51.174;4.160;2023-06-04T05:13:24;14.30;99.90
18777;DHT22;9517;51.174;4.160;2023-06-04T05:15:51;14.30;99.90
18777;DHT22;9517;51.174;4.160;2023-06-04T05:18:20;14.40;99.90
18777;DHT22;9517;51.174;4.160;2023-06-04T05:20:54;14.40;99.90
18777;DHT22;9517;51.174;4.160;2023-06-04T05:23:21;14.60;99.90
18777;DHT22;9517;51.174;4.160;2023-06-04T05:25:48;14.80;99.90
18777;DHT22;9517;51.174;4.160;2023-06-04T05:28:16;14.80;99.90
18777;DHT22;9517;51.174;4.160;2023-06-04T05:30:43;14.80;99.90
18777;DHT22;9517;51.174;4.160;2023-06-04T05:33:10;14.90;99.90
18777;DHT22;9517;51.174;4.160;2023-06-04T05:35:45;15.00;99.90
18777;DHT22;9517;51.174;4.160;2023-06-04T05:38:12;15.30;99.90
18777;DHT22;9517;51.174;4.160;2023-06-04T05:40:42;15.30;99.90
18777;DHT22;9517;51.174;4.160;2023-06-04T05:43:10;15.40;99.90
18777;DHT22;9517;51.174;4.160;2023-06-04T05:45:37;15.40;99.90
18777;DHT22;9517;51.174;4.160;2023-06-04T05:48:04;15.60;99.90
18777;DHT22;9517;51.174;4.160;2023-06-04T05:50:31;15.60;99.90
18777;DHT22;9517;51.174;4.160;2023-06-04T05:53:00;15.70;99.90
18777;DHT22;9517;51.174;4.160;2023-06-04T05:55:27;15.80;99.90
18777;DHT22;9517;51.174;4.160;2023-06-04T05:57:54;16.00;99.90
18777;DHT22;9517;51.174;4.160;2023-06-04T06:00:22;16.10;99.90
18777;DHT22;9517;51.174;4.160;2023-06-04T06:02:49;16.20;99.90
18777;DHT22;9517;51.174;4.160;2023-06-04T06:05:18;16.30;99.90
18777;DHT22;9517;51.174;4.160;2023-06-04T06:07:45;16.50;99.90
18777;DHT22;9517;51.174;4.160;2023-06-04T06:10:15;16.50;99.90
18777;DHT22;9517;51.174;4.160;2023-06-04T06:12:42;16.50;99.90
18777;DHT22;9517;51.174;4.160;2023-06-04T06:15:09;16.60;99.90
18777;DHT22;9517;51.174;4.160;2023-06-04T06:17:38;16.60;99.90
18777;DHT22;9517;51.174;4.160;2023-06-04T06:20:06;16.60;99.90
18777;DHT22;9517;51.174;4.160;2023-06-04T06:22:33;16.80;99.90
18777;DHT22;9517;51.174;4.160;2023-06-04T06:25:01;17.00;99.90
18777;DHT22;9517;51.174;4.160;2023-06-04T06:27:30;17.10;99.90
18777;DHT22;9517;51.174;4.160;2023-06-04T06:29:57;17.30;99.90
18777;DHT22;9517;51.174;4.160;2023-06-04T06:32:24;17.30;99.90
18777;DHT22;9517;51.174;4.160;2023-06-04T06:34:51;17.40;99.90
18777;DHT22;9517;51.174;4.160;2023-06-04T06:37:18;17.50;99.90
18777;DHT22;9517;51.174;4.160;2023-06-04T06:39:45;17.40;99.90
18777;DHT22;9517;51.174;4.160;2023-06-04T06:42:12;17.40;99.90
18777;DHT22;9517;51.174;4.160;2023-06-04T06:44:41;17.60;99.90
18777;DHT22;9517;51.174;4.160;2023-06-04T06:47:08;17.70;99.90
18777;DHT22;9517;51.174;4.160;2023-06-04T06:49:36;17.90;99.90
18777;DHT22;9517;51.174;4.160;2023-06-04T06:52:03;18.10;99.90
18777;DHT22;9517;51.174;4.160;2023-06-04T06:54:30;18.10;99.90
18777;DHT22;9517;51.174;4.160;2023-06-04T06:56:57;18.40;99.90
18777;DHT22;9517;51.174;4.160;2023-06-04T06:59:24;18.50;99.90
18777;DHT22;9517;51.174;4.160;2023-06-04T07:01:53;18.50;99.90
18777;DHT22;9517;51.174;4.160;2023-06-04T07:04:20;18.60;99.90
18777;DHT22;9517;51.174;4.160;2023-06-04T07:06:47;18.60;99.90
18777;DHT22;9517;51.174;4.160;2023-06-04T07:09:14;18.80;99.90
18777;DHT22;9517;51.174;4.160;2023-06-04T07:11:41;19.00;99.90
18777;DHT22;9517;51.174;4.160;2023-06-04T07:14:08;19.00;99.90
18777;DHT22;9517;51.174;4.160;2023-06-04T07:16:35;19.20;99.90
18777;DHT22;9517;51.174;4.160;2023-06-04T07:19:04;19.20;99.90
18777;DHT22;9517;51.174;4.160;2023-06-04T07:21:31;19.40;99.90
18777;DHT22;9517;51.174;4.160;2023-06-04T07:23:58;19.60;99.90
18777;DHT22;9517;51.174;4.160;2023-06-04T07:26:25;19.60;99.90
18777;DHT22;9517;51.174;4.160;2023-06-04T07:28:56;19.60;99.90
18777;DHT22;9517;51.174;4.160;2023-06-04T07:31:23;19.60;99.90
18777;DHT22;9517;51.174;4.160;2023-06-04T07:33:50;19.70;99.90
18777;DHT22;9517;51.174;4.160;2023-06-04T07:36:19;19.80;99.90
18777;DHT22;9517;51.174;4.160;2023-06-04T07:38:46;20.10;99.90
18777;DHT22;9517;51.174;4.160;2023-06-04T07:41:13;20.20;99.90
18777;DHT22;9517;51.174;4.160;2023-06-04T07:43:40;20.20;99.90
18777;DHT22;9517;51.174;4.160;2023-06-04T07:46:09;20.30;99.90
18777;DHT22;9517;51.174;4.160;2023-06-04T07:48:36;20.10;99.90
18777;DHT22;9517;51.174;4.160;2023-06-04T07:51:03;20.20;99.90
18777;DHT22;9517;51.174;4.160;2023-06-04T07:53:32;20.50;99.90
18777;DHT22;9517;51.174;4.160;2023-06-04T07:55:59;20.60;99.90
18777;DHT22;9517;51.174;4.160;2023-06-04T07:58:26;20.80;99.90
18777;DHT22;9517;51.174;4.160;2023-06-04T08:00:53;20.90;99.90
18777;DHT22;9517;51.174;4.160;2023-06-04T08:03:20;21.40;99.90
18777;DHT22;9517;51.174;4.160;2023-06-04T08:05:48;21.50;99.90
18777;DHT22;9517;51.174;4.160;2023-06-04T08:08:15;21.60;99.90
18777;DHT22;9517;51.174;4.160;2023-06-04T08:10:43;21.80;99.90
18777;DHT22;9517;51.174;4.160;2023-06-04T08:13:11;22.10;99.90
18777;DHT22;9517;51.174;4.160;2023-06-04T08:15:38;22.30;99.90
18777;DHT22;9517;51.174;4.160;2023-06-04T08:18:05;22.40;99.90
18777;DHT22;9517;51.174;4.160;2023-06-04T08:20:32;22.60;99.90
18777;DHT22;9517;51.174;4.160;2023-06-04T08:22:59;22.50;99.90
18777;DHT22;9517;51.174;4.160;2023-06-04T08:25:26;22.60;99.90
18777;DHT22;9517;51.174;4.160;2023-06-04T08:27:54;22.60;99.90
18777;DHT22;9517;51.174;4.160;2023-06-04T08:30:21;22.60;99.90
18777;DHT22;9517;51.174;4.160;2023-06-04T08:32:49;22.70;99.90
18777;DHT22;9517;51.174;4.160;2023-06-04T08:35:16;22.90;99.90
18777;DHT22;9517;51.174;4.160;2023-06-04T08:37:43;23.10;99.90
18777;DHT22;9517;51.174;4.160;2023-06-04T08:40:11;23.30;99.90
18777;DHT22;9517;51.174;4.160;2023-06-04T08:42:41;23.30;99.90
18777;DHT22;9517;51.174;4.160;2023-06-04T08:45:11;23.30;99.90
18777;DHT22;9517;51.174;4.160;2023-06-04T08:47:41;22.90;99.90
18777;DHT22;9517;51.174;4.160;2023-06-04T08:50:10;22.50;99.90
18777;DHT22;9517;51.174;4.160;2023-06-04T08:52:38;22.50;99.90
18777;DHT22;9517;51.174;4.160;2023-06-04T08:55:08;22.90;99.90
18777;DHT22;9517;51.174;4.160;2023-06-04T08:57:37;23.10;99.90
18777;DHT22;9517;51.174;4.160;2023-06-04T09:00:05;23.10;99.90
18777;DHT22;9517;51.174;4.160;2023-06-04T09:02:36;23.50;99.90
18777;DHT22;9517;51.174;4.160;2023-06-04T09:05:04;23.60;98.90
18777;DHT22;9517;51.174;4.160;2023-06-04T09:07:35;23.80;98.70
18777;DHT22;9517;51.174;4.160;2023-06-04T09:10:05;23.60;99.90
18777;DHT22;9517;51.174;4.160;2023-06-04T09:12:36;23.80;99.30
18777;DHT22;9517;51.174;4.160;2023-06-04T09:15:04;24.10;99.30
18777;DHT22;9517;51.174;4.160;2023-06-04T09:17:31;24.40;98.40
18777;DHT22;9517;51.174;4.160;2023-06-04T09:19:59;24.40;97.30
18777;DHT22;9517;51.174;4.160;2023-06-04T09:22:33;24.60;97.80
18777;DHT22;9517;51.174;4.160;2023-06-04T09:25:01;25.00;99.50
18777;DHT22;9517;51.174;4.160;2023-06-04T09:27:37;25.30;97.80
18777;DHT22;9517;51.174;4.160;2023-06-04T09:30:06;25.40;95.10
18777;DHT22;9517;51.174;4.160;2023-06-04T09:32:34;25.40;94.10
18777;DHT22;9517;51.174;4.160;2023-06-04T09:35:10;25.40;94.00
18777;DHT22;9517;51.174;4.160;2023-06-04T09:37:38;25.50;95.60
18777;DHT22;9517;51.174;4.160;2023-06-04T09:40:07;25.80;95.00
18777;DHT22;9517;51.174;4.160;2023-06-04T09:42:42;26.10;92.60
18777;DHT22;9517;51.174;4.160;2023-06-04T09:45:10;26.30;92.40
18777;DHT22;9517;51.174;4.160;2023-06-04T09:47:41;26.50;91.50
18777;DHT22;9517;51.174;4.160;2023-06-04T09:50:11;26.50;90.80
18777;DHT22;9517;51.174;4.160;2023-06-04T09:52:38;26.80;90.50
18777;DHT22;9517;51.174;4.160;2023-06-04T09:55:16;26.70;88.70
18777;DHT22;9517;51.174;4.160;2023-06-04T09:57:47;26.80;88.90
18777;DHT22;9517;51.174;4.160;2023-06-04T10:00:16;26.90;90.00
18777;DHT22;9517;51.174;4.160;2023-06-04T10:02:44;27.10;90.30
18777;DHT22;9517;51.174;4.160;2023-06-04T10:05:15;27.50;89.50
18777;DHT22;9517;51.174;4.160;2023-06-04T10:07:43;27.60;86.30
18777;DHT22;9517;51.174;4.160;2023-06-04T10:10:14;27.70;86.40
18777;DHT22;9517;51.174;4.160;2023-06-04T10:12:42;27.90;82.60
18777;DHT22;9517;51.174;4.160;2023-06-04T10:15:11;28.20;83.20
18777;DHT22;9517;51.174;4.160;2023-06-04T10:17:39;28.30;85.60
18777;DHT22;9517;51.174;4.160;2023-06-04T10:20:07;28.10;86.80
18777;DHT22;9517;51.174;4.160;2023-06-04T10:22:37;28.00;77.40
18777;DHT22;9517;51.174;4.160;2023-06-04T10:25:05;28.00;84.80
18777;DHT22;9517;51.174;4.160;2023-06-04T10:27:33;27.70;83.70
18777;DHT22;9517;51.174;4.160;2023-06-04T10:30:01;28.10;82.00
18777;DHT22;9517;51.174;4.160;2023-06-04T10:32:30;28.30;82.10
18777;DHT22;9517;51.174;4.160;2023-06-04T10:34:57;28.10;77.20
18777;DHT22;9517;51.174;4.160;2023-06-04T10:37:25;28.40;76.80
18777;DHT22;9517;51.174;4.160;2023-06-04T10:39:55;28.80;79.20
18777;DHT22;9517;51.174;4.160;2023-06-04T10:42:23;29.10;77.50
18777;DHT22;9517;51.174;4.160;2023-06-04T10:44:51;29.60;78.20
18777;DHT22;9517;51.174;4.160;2023-06-04T10:47:19;30.00;75.50
18777;DHT22;9517;51.174;4.160;2023-06-04T10:49:47;30.10;74.10
18777;DHT22;9517;51.174;4.160;2023-06-04T10:52:14;30.20;75.00
18777;DHT22;9517;51.174;4.160;2023-06-04T10:54:42;30.40;73.30
18777;DHT22;9517;51.174;4.160;2023-06-04T10:57:13;31.10;76.50
18777;DHT22;9517;51.174;4.160;2023-06-04T10:59:40;31.10;71.60
18777;DHT22;9517;51.174;4.160;2023-06-04T11:02:08;31.40;70.60
18777;DHT22;9517;51.174;4.160;2023-06-04T11:04:35;31.60;69.70
18777;DHT22;9517;51.174;4.160;2023-06-04T11:07:04;32.20;69.90
18777;DHT22;9517;51.174;4.160;2023-06-04T11:09:34;31.20;64.50
18777;DHT22;9517;51.174;4.160;2023-06-04T11:12:03;31.10;69.20
18777;DHT22;9517;51.174;4.160;2023-06-04T11:14:32;31.60;69.90
18777;DHT22;9517;51.174;4.160;2023-06-04T11:17:09;31.80;71.70
18777;DHT22;9517;51.174;4.160;2023-06-04T11:19:37;32.40;69.10
18777;DHT22;9517;51.174;4.160;2023-06-04T11:22:05;32.40;64.80
18777;DHT22;9517;51.174;4.160;2023-06-04T11:24:32;32.50;66.70
18777;DHT22;9517;51.174;4.160;2023-06-04T11:26:59;32.60;64.90
18777;DHT22;9517;51.174;4.160;2023-06-04T11:29:27;32.60;64.00
18777;DHT22;9517;51.174;4.160;2023-06-04T11:31:55;32.90;64.80
18777;DHT22;9517;51.174;4.160;2023-06-04T11:34:23;33.60;61.90
18777;DHT22;9517;51.174;4.160;2023-06-04T11:36:50;34.10;60.40
18777;DHT22;9517;51.174;4.160;2023-06-04T11:39:18;34.20;61.70
18777;DHT22;9517;51.174;4.160;2023-06-04T11:41:46;34.80;60.20
18777;DHT22;9517;51.174;4.160;2023-06-04T11:44:13;35.10;59.20
18777;DHT22;9517;51.174;4.160;2023-06-04T11:46:41;35.40;58.40
18777;DHT22;9517;51.174;4.160;2023-06-04T11:49:15;36.00;57.60
18777;DHT22;9517;51.174;4.160;2023-06-04T11:51:46;35.70;58.10
18777;DHT22;9517;51.174;4.160;2023-06-04T11:54:13;36.30;57.80
18777;DHT22;9517;51.174;4.160;2023-06-04T11:56:42;36.80;57.00
18777;DHT22;9517;51.174;4.160;2023-06-04T11:59:11;37.10;57.90
18777;DHT22;9517;51.174;4.160;2023-06-04T12:01:39;37.40;57.90
18777;DHT22;9517;51.174;4.160;2023-06-04T12:04:13;37.30;56.80
18777;DHT22;9517;51.174;4.160;2023-06-04T12:06:51;37.80;54.10
18777;DHT22;9517;51.174;4.160;2023-06-04T12:09:22;37.40;55.70
18777;DHT22;9517;51.174;4.160;2023-06-04T12:11:49;37.10;54.90
18777;DHT22;9517;51.174;4.160;2023-06-04T12:14:17;36.60;55.40
18777;DHT22;9517;51.174;4.160;2023-06-04T12:16:54;36.60;56.90
18777;DHT22;9517;51.174;4.160;2023-06-04T12:19:23;36.90;55.40
18777;DHT22;9517;51.174;4.160;2023-06-04T12:22:02;37.20;54.70
18777;DHT22;9517;51.174;4.160;2023-06-04T12:24:31;37.00;53.40
18777;DHT22;9517;51.174;4.160;2023-06-04T12:27:04;37.00;54.20
18777;DHT22;9517;51.174;4.160;2023-06-04T12:29:32;37.10;55.50
18777;DHT22;9517;51.174;4.160;2023-06-04T12:32:04;37.40;53.40
18777;DHT22;9517;51.174;4.160;2023-06-04T12:34:35;37.10;54.50
18777;DHT22;9517;51.174;4.160;2023-06-04T12:37:02;36.70;52.40
18777;DHT22;9517;51.174;4.160;2023-06-04T12:39:31;37.20;54.60
18777;DHT22;9517;51.174;4.160;2023-06-04T12:41:58;36.30;55.00
18777;DHT22;9517;51.174;4.160;2023-06-04T12:44:25;35.70;55.10
18777;DHT22;9517;51.174;4.160;2023-06-04T12:46:53;36.10;56.80
18777;DHT22;9517;51.174;4.160;2023-06-04T12:49:20;36.40;56.70
18777;DHT22;9517;51.174;4.160;2023-06-04T12:51:48;36.20;54.60
18777;DHT22;9517;51.174;4.160;2023-06-04T12:54:15;35.90;56.60
18777;DHT22;9517;51.174;4.160;2023-06-04T12:56:43;36.60;56.90
18777;DHT22;9517;51.174;4.160;2023-06-04T12:59:12;37.00;54.60
18777;DHT22;9517;51.174;4.160;2023-06-04T13:01:39;36.80;55.20
18777;DHT22;9517;51.174;4.160;2023-06-04T13:04:06;36.50;56.10
18777;DHT22;9517;51.174;4.160;2023-06-04T13:06:34;36.60;56.40
18777;DHT22;9517;51.174;4.160;2023-06-04T13:09:04;37.30;56.10
18777;DHT22;9517;51.174;4.160;2023-06-04T13:11:35;35.90;53.50
18777;DHT22;9517;51.174;4.160;2023-06-04T13:14:03;35.10;54.50
18777;DHT22;9517;51.174;4.160;2023-06-04T13:16:30;35.90;56.70
18777;DHT22;9517;51.174;4.160;2023-06-04T13:18:58;35.80;55.90
18777;DHT22;9517;51.174;4.160;2023-06-04T13:21:25;36.30;54.80
18777;DHT22;9517;51.174;4.160;2023-06-04T13:23:52;36.40;53.90
18777;DHT22;9517;51.174;4.160;2023-06-04T13:26:21;37.40;54.70
18777;DHT22;9517;51.174;4.160;2023-06-04T13:28:49;37.80;54.70
18777;DHT22;9517;51.174;4.160;2023-06-04T13:31:16;36.60;53.50
18777;DHT22;9517;51.174;4.160;2023-06-04T13:33:43;35.50;53.80
18777;DHT22;9517;51.174;4.160;2023-06-04T13:36:10;34.80;55.20
18777;DHT22;9517;51.174;4.160;2023-06-04T13:38:37;34.80;57.00
18777;DHT22;9517;51.174;4.160;2023-06-04T13:41:06;35.20;57.60
18777;DHT22;9517;51.174;4.160;2023-06-04T13:43:35;36.00;55.70
18777;DHT22;9517;51.174;4.160;2023-06-04T13:46:03;36.50;55.00
18777;DHT22;9517;51.174;4.160;2023-06-04T13:48:31;36.00;55.30
18777;DHT22;9517;51.174;4.160;2023-06-04T13:50:58;36.40;53.80
18777;DHT22;9517;51.174;4.160;2023-06-04T13:53:25;36.00;53.30
18777;DHT22;9517;51.174;4.160;2023-06-04T13:55:52;35.20;54.50
18777;DHT22;9517;51.174;4.160;2023-06-04T13:58:24;35.30;56.60
18777;DHT22;9517;51.174;4.160;2023-06-04T14:00:53;35.30;56.70
18777;DHT22;9517;51.174;4.160;2023-06-04T14:03:21;35.70;56.20
18777;DHT22;9517;51.174;4.160;2023-06-04T14:05:48;35.90;55.60
18777;DHT22;9517;51.174;4.160;2023-06-04T14:08:15;35.20;56.40
18777;DHT22;9517;51.174;4.160;2023-06-04T14:10:42;35.40;56.20
18777;DHT22;9517;51.174;4.160;2023-06-04T14:13:09;35.90;55.90
18777;DHT22;9517;51.174;4.160;2023-06-04T14:15:37;36.40;55.90
18777;DHT22;9517;51.174;4.160;2023-06-04T14:18:05;37.00;55.50
18777;DHT22;9517;51.174;4.160;2023-06-04T14:20:33;37.10;54.70
18777;DHT22;9517;51.174;4.160;2023-06-04T14:23:01;36.50;54.80
18777;DHT22;9517;51.174;4.160;2023-06-04T14:25:28;35.90;55.10
18777;DHT22;9517;51.174;4.160;2023-06-04T14:27:55;35.20;54.90
18777;DHT22;9517;51.174;4.160;2023-06-04T14:30:22;34.40;56.90
18777;DHT22;9517;51.174;4.160;2023-06-04T14:32:49;34.70;55.10
18777;DHT22;9517;51.174;4.160;2023-06-04T14:35:18;35.10;57.90
18777;DHT22;9517;51.174;4.160;2023-06-04T14:37:45;35.70;55.50
18777;DHT22;9517;51.174;4.160;2023-06-04T14:40:12;35.70;54.10
18777;DHT22;9517;51.174;4.160;2023-06-04T14:42:39;35.00;54.30
18777;DHT22;9517;51.174;4.160;2023-06-04T14:45:07;34.40;55.20
18777;DHT22;9517;51.174;4.160;2023-06-04T14:47:34;34.90;57.00
18777;DHT22;9517;51.174;4.160;2023-06-04T14:50:01;35.70;55.70
18777;DHT22;9517;51.174;4.160;2023-06-04T14:52:30;35.50;54.50
18777;DHT22;9517;51.174;4.160;2023-06-04T14:54:57;35.70;56.90
18777;DHT22;9517;51.174;4.160;2023-06-04T14:57:24;34.90;54.60
18777;DHT22;9517;51.174;4.160;2023-06-04T14:59:51;34.80;56.00
18777;DHT22;9517;51.174;4.160;2023-06-04T15:02:18;34.10;55.10
18777;DHT22;9517;51.174;4.160;2023-06-04T15:04:46;34.20;56.50
18777;DHT22;9517;51.174;4.160;2023-06-04T15:07:13;33.90;56.60
18777;DHT22;9517;51.174;4.160;2023-06-04T15:09:42;34.20;57.80
18777;DHT22;9517;51.174;4.160;2023-06-04T15:12:09;35.00;58.70
18777;DHT22;9517;51.174;4.160;2023-06-04T15:14:36;35.80;55.20
18777;DHT22;9517;51.174;4.160;2023-06-04T15:17:03;35.60;56.70
18777;DHT22;9517;51.174;4.160;2023-06-04T15:19:32;35.30;55.10
18777;DHT22;9517;51.174;4.160;2023-06-04T15:21:59;35.00;55.60
18777;DHT22;9517;51.174;4.160;2023-06-04T15:24:26;34.40;56.40
18777;DHT22;9517;51.174;4.160;2023-06-04T15:26:55;33.70;56.70
18777;DHT22;9517;51.174;4.160;2023-06-04T15:29:22;33.80;57.80
18777;DHT22;9517;51.174;4.160;2023-06-04T15:31:49;33.90;57.30
18777;DHT22;9517;51.174;4.160;2023-06-04T15:34:16;34.50;57.70
18777;DHT22;9517;51.174;4.160;2023-06-04T15:36:44;35.10;56.00
18777;DHT22;9517;51.174;4.160;2023-06-04T15:39:12;35.60;56.20
18777;DHT22;9517;51.174;4.160;2023-06-04T15:41:39;35.10;55.50
18777;DHT22;9517;51.174;4.160;2023-06-04T15:44:07;34.60;54.10
18777;DHT22;9517;51.174;4.160;2023-06-04T15:46:34;34.70;55.60
18777;DHT22;9517;51.174;4.160;2023-06-04T15:49:05;34.50;55.10
18777;DHT22;9517;51.174;4.160;2023-06-04T15:51:34;33.80;55.10